Seabourn Pride — C6FR5 — position and weather

sailwx.info

Track history (hours):
 
Tides and Currents Weather Stations Pressure Air Temp Water Temp Dewpoint Dewpoint Depression Visibility Wind Speed Wind Dir Waves Ship Positions

Seabourn Pride

Operator: Cunard Seabourn

Last reported at 2018-Feb-22 13:08 UTC. Time now 2018-Feb-22 15:00 UTC.
Position N 16°53' W 062°37'.

Length 134 m; draft 5.6 m.

Type: Passenger vessel. MMSI: 311084000.

Date/timePositionNaut miles runAvg speedWind from/ knotsBaromVisibWave heightAir tempDewpointWater temp
2018-Feb-22 13:08N 16°53' W 062°37'211.8
2018-Feb-22 13:00N 16°52' W 062°35'1510.9
2018-Feb-22 11:35N 16°50' W 062°20'110.4
2018-Feb-22 11:30N 16°50' W 062°19'510.3
2018-Feb-22 11:00N 16°48' W 062°14'1 2.3
2018-Feb-22 10:30N 16°48' W 062°14'3 5.6
2018-Feb-22 10:00N 16°46' W 062°17'4 6.5
2018-Feb-22 09:20N 16°41' W 062°16'3 7.9
2018-Feb-22 08:54N 16°38' W 062°14'3 7.5
2018-Feb-22 08:30N 16°36' W 062°13'4 7.2
2018-Feb-22 08:00N 16°33' W 062°11'4 7.2
2018-Feb-22 07:29N 16°30' W 062°09'4 7.2
2018-Feb-22 07:00N 16°27' W 062°07'4 7.7
2018-Feb-22 06:30N 16°24' W 062°04'4 7.5
2018-Feb-22 06:00N 16°21' W 062°01'4 7.3
2018-Feb-22 05:30N 16°18' W 061°59'4 7.5
2018-Feb-22 05:00N 16°15' W 061°57'15 7.7
2018-Feb-22 03:02N 16°02' W 061°48'1 8.0
2018-Feb-22 02:53N 16°01' W 061°48'3 8.2
2018-Feb-22 02:30N 15°59' W 061°46'91 3.6
2018-Feb-21 01:14N 14°33' W 061°14'3 9.3
2018-Feb-21 00:54N 14°30' W 061°13'5 0.3
2018-Feb-20 05:07N 14°27' W 061°09'1 5.5
2018-Feb-20 04:53N 14°28' W 061°09'6 5.2
2018-Feb-20 03:44N 14°34' W 061°07'61 2.9
2018-Feb-19 06:41N 15°25' W 061°40'7612.8
2018-Feb-19 00:48N 16°28' W 062°23'312.1
2018-Feb-19 00:31N 16°31' W 062°25'612.5
2018-Feb-19 00:00N 16°37' W 062°29'612.8
2018-Feb-18 23:30N 16°42' W 062°32'1412.7
2018-Feb-18 22:25N 16°54' W 062°40'2513.3
2018-Feb-18 20:35N 17°14' W 062°54'112.6
2018-Feb-18 20:30N 17°15' W 062°54'1212.9
2018-Feb-18 19:34N 17°25' W 063°01'212.8
2018-Feb-18 19:26N 17°27' W 063°02'713.2
2018-Feb-18 18:56N 17°32' W 063°06'612.9
2018-Feb-18 18:29N 17°37' W 063°09'612.4
2018-Feb-18 18:00N 17°41' W 063°14'812.4
2018-Feb-18 17:20N 17°45' W 063°21'1012.7
2018-Feb-18 16:35N 17°49' W 063°30'312.8
2018-Feb-18 16:21N 17°50' W 063°33'7 0.2
2018-Feb-16 21:24N 17°53' W 063°40'513.2
2018-Feb-16 21:00N 17°51' W 063°35'713.5
2018-Feb-16 20:27N 17°48' W 063°28'713.5
2018-Feb-16 19:58N 17°45' W 063°22'613.3
2018-Feb-16 19:30N 17°42' W 063°16'712.5
2018-Feb-16 18:58N 17°39' W 063°10'612.7
2018-Feb-16 18:29N 17°34' W 063°07'913.1
2018-Feb-16 17:49N 17°26' W 063°02'413.0
2018-Feb-16 17:29N 17°24' W 062°58'19 2.3
2018-Feb-16 09:16N 17°12' W 062°44'2 7.0
2018-Feb-16 08:58N 17°10' W 062°44'3 6.3
2018-Feb-16 08:30N 17°07' W 062°43'9 5.7
2018-Feb-16 06:50N 16°58' W 062°39'2 6.5
2018-Feb-16 06:27N 16°57' W 062°37'3 6.4
2018-Feb-16 05:56N 16°55' W 062°34'9 4.9
2018-Feb-16 04:07N 16°52' W 062°26'0 3.8
2018-Feb-16 04:00N 16°52' W 062°25'4 3.7
2018-Feb-16 02:54N 16°50' W 062°21'2 4.0
2018-Feb-16 02:30N 16°50' W 062°20'2 4.8
2018-Feb-16 02:00N 16°49' W 062°17'2 4.8
2018-Feb-16 01:30N 16°49' W 062°15'2 3.6
2018-Feb-16 00:59N 16°48' W 062°13'0 0.0
2018-Feb-16 00:23N 16°48' W 062°13'0 0.1
2018-Feb-15 23:56N 16°48' W 062°13'0 0.1
2018-Feb-15 23:29N 16°48' W 062°13'0 0.1
2018-Feb-15 22:59N 16°48' W 062°13'0 0.0
2018-Feb-15 22:29N 16°48' W 062°13'0 0.0
2018-Feb-15 21:56N 16°48' W 062°13'0 0.1
2018-Feb-15 21:20N 16°48' W 062°13'0 0.1
2018-Feb-15 20:53N 16°48' W 062°13'0 0.0
2018-Feb-15 20:23N 16°48' W 062°13'0 0.0
2018-Feb-15 19:59N 16°48' W 062°13'0 0.1
2018-Feb-15 19:26N 16°48' W 062°13'0 0.1
2018-Feb-15 18:59N 16°48' W 062°13'0 0.0
2018-Feb-15 18:29N 16°48' W 062°13'0 0.1
2018-Feb-15 17:59N 16°48' W 062°13'0 0.0
2018-Feb-15 17:26N 16°48' W 062°13'0 0.0
2018-Feb-15 16:56N 16°48' W 062°13'0 0.1
2018-Feb-15 16:29N 16°48' W 062°13'0 0.0
2018-Feb-15 15:59N 16°48' W 062°13'0 0.1
2018-Feb-15 15:29N 16°48' W 062°13'0 0.0
2018-Feb-15 14:56N 16°48' W 062°13'0 0.1
2018-Feb-15 14:17N 16°48' W 062°13'0 0.1
2018-Feb-15 13:59N 16°48' W 062°13'0 0.1
2018-Feb-15 13:29N 16°48' W 062°13'0 0.0
2018-Feb-15 12:59N 16°48' W 062°13'0 0.0
2018-Feb-15 12:26N 16°48' W 062°13'0 0.0
2018-Feb-15 12:00N 16°48' W 062°13'0 0.1
2018-Feb-15 11:30N 16°48' W 062°13'0 0.1
2018-Feb-15 11:00N 16°48' W 062°13'0 0.1
2018-Feb-15 10:30N 16°48' W 062°13'3 5.0
2018-Feb-15 10:00N 16°48' W 062°15'3 5.9
2018-Feb-15 09:30N 16°45' W 062°17'4 6.4
2018-Feb-15 08:57N 16°41' W 062°17'3 6.9
2018-Feb-15 08:30N 16°39' W 062°15'4 7.4
2018-Feb-15 08:00N 16°36' W 062°13'4 7.4
2018-Feb-15 07:30N 16°33' W 062°11'4 7.3
2018-Feb-15 07:00N 16°30' W 062°09'4 7.1
2018-Feb-15 06:30N 16°27' W 062°06'3 6.9
2018-Feb-15 06:00N 16°24' W 062°04'3 6.5
2018-Feb-15 05:30N 16°21' W 062°02'3 6.4
2018-Feb-15 04:59N 16°19' W 062°00'3 6.5
2018-Feb-15 04:30N 16°16' W 061°58'4 6.7
2018-Feb-15 03:50N 16°12' W 061°56'12 9.6
2018-Feb-15 02:34N 16°03' W 061°48'211.0
2018-Feb-15 02:25N 16°01' W 061°47'88 3.3
2018-Feb-14 00:12N 14°39' W 061°16'511.3
2018-Feb-13 23:47N 14°35' W 061°14'411.2
2018-Feb-13 23:23N 14°31' W 061°11'411.3
2018-Feb-13 23:00N 14°27' W 061°10'612.0
2018-Feb-13 22:30N 14°21' W 061°07'1 0.0
2018-Feb-13 02:11N 14°21' W 061°07'1 6.5
2018-Feb-13 01:59N 14°22' W 061°07'5 7.4
2018-Feb-13 01:19N 14°27' W 061°09'1 2.9
2018-Feb-13 00:50N 14°28' W 061°09'9 0.9
2018-Feb-12 14:23N 14°36' W 061°04'  
Track history (hours):
 
Tides and Currents Weather Stations Pressure Air Temp Water Temp Dewpoint Dewpoint Depression Visibility Wind Speed Wind Dir Waves Ship Positions

Seabourn Pride

Operator: Cunard Seabourn

Last reported at 2018-Feb-22 13:08 UTC. Time now 2018-Feb-22 15:00 UTC.
Position N 16°53' W 062°37'.

Length 134 m; draft 5.6 m.

Type: Passenger vessel. MMSI: 311084000.

Date/timePositionNaut miles runAvg speedWind from/ knotsBaromVisibWave heightAir tempDewpointWater temp
2018-Feb-22 13:08N 16°53' W 062°37'211.8
2018-Feb-22 13:00N 16°52' W 062°35'1510.9
2018-Feb-22 11:35N 16°50' W 062°20'110.4
2018-Feb-22 11:30N 16°50' W 062°19'510.3
2018-Feb-22 11:00N 16°48' W 062°14'1 2.3
2018-Feb-22 10:30N 16°48' W 062°14'3 5.6
2018-Feb-22 10:00N 16°46' W 062°17'4 6.5
2018-Feb-22 09:20N 16°41' W 062°16'3 7.9
2018-Feb-22 08:54N 16°38' W 062°14'3 7.5
2018-Feb-22 08:30N 16°36' W 062°13'4 7.2
2018-Feb-22 08:00N 16°33' W 062°11'4 7.2
2018-Feb-22 07:29N 16°30' W 062°09'4 7.2
2018-Feb-22 07:00N 16°27' W 062°07'4 7.7
2018-Feb-22 06:30N 16°24' W 062°04'4 7.5
2018-Feb-22 06:00N 16°21' W 062°01'4 7.3
2018-Feb-22 05:30N 16°18' W 061°59'4 7.5
2018-Feb-22 05:00N 16°15' W 061°57'15 7.7
2018-Feb-22 03:02N 16°02' W 061°48'1 8.0
2018-Feb-22 02:53N 16°01' W 061°48'3 8.2
2018-Feb-22 02:30N 15°59' W 061°46'91 3.6
2018-Feb-21 01:14N 14°33' W 061°14'3 9.3
2018-Feb-21 00:54N 14°30' W 061°13'5 0.3
2018-Feb-20 05:07N 14°27' W 061°09'1 5.5
2018-Feb-20 04:53N 14°28' W 061°09'6 5.2
2018-Feb-20 03:44N 14°34' W 061°07'61 2.9
2018-Feb-19 06:41N 15°25' W 061°40'7612.8
2018-Feb-19 00:48N 16°28' W 062°23'312.1
2018-Feb-19 00:31N 16°31' W 062°25'612.5
2018-Feb-19 00:00N 16°37' W 062°29'612.8
2018-Feb-18 23:30N 16°42' W 062°32'1412.7
2018-Feb-18 22:25N 16°54' W 062°40'2513.3
2018-Feb-18 20:35N 17°14' W 062°54'112.6
2018-Feb-18 20:30N 17°15' W 062°54'1212.9
2018-Feb-18 19:34N 17°25' W 063°01'212.8
2018-Feb-18 19:26N 17°27' W 063°02'713.2
2018-Feb-18 18:56N 17°32' W 063°06'612.9
2018-Feb-18 18:29N 17°37' W 063°09'612.4
2018-Feb-18 18:00N 17°41' W 063°14'812.4
2018-Feb-18 17:20N 17°45' W 063°21'1012.7
2018-Feb-18 16:35N 17°49' W 063°30'312.8
2018-Feb-18 16:21N 17°50' W 063°33'7 0.2
2018-Feb-16 21:24N 17°53' W 063°40'513.2
2018-Feb-16 21:00N 17°51' W 063°35'713.5
2018-Feb-16 20:27N 17°48' W 063°28'713.5
2018-Feb-16 19:58N 17°45' W 063°22'613.3
2018-Feb-16 19:30N 17°42' W 063°16'712.5
2018-Feb-16 18:58N 17°39' W 063°10'612.7
2018-Feb-16 18:29N 17°34' W 063°07'913.1
2018-Feb-16 17:49N 17°26' W 063°02'413.0
2018-Feb-16 17:29N 17°24' W 062°58'19 2.3
2018-Feb-16 09:16N 17°12' W 062°44'2 7.0
2018-Feb-16 08:58N 17°10' W 062°44'3 6.3
2018-Feb-16 08:30N 17°07' W 062°43'9 5.7
2018-Feb-16 06:50N 16°58' W 062°39'2 6.5
2018-Feb-16 06:27N 16°57' W 062°37'3 6.4
2018-Feb-16 05:56N 16°55' W 062°34'9 4.9
2018-Feb-16 04:07N 16°52' W 062°26'0 3.8
2018-Feb-16 04:00N 16°52' W 062°25'4 3.7
2018-Feb-16 02:54N 16°50' W 062°21'2 4.0
2018-Feb-16 02:30N 16°50' W 062°20'2 4.8
2018-Feb-16 02:00N 16°49' W 062°17'2 4.8
2018-Feb-16 01:30N 16°49' W 062°15'2 3.6
2018-Feb-16 00:59N 16°48' W 062°13'0 0.0
2018-Feb-16 00:23N 16°48' W 062°13'0 0.1
2018-Feb-15 23:56N 16°48' W 062°13'0 0.1
2018-Feb-15 23:29N 16°48' W 062°13'0 0.1
2018-Feb-15 22:59N 16°48' W 062°13'0 0.0
2018-Feb-15 22:29N 16°48' W 062°13'0 0.0
2018-Feb-15 21:56N 16°48' W 062°13'0 0.1
2018-Feb-15 21:20N 16°48' W 062°13'0 0.1
2018-Feb-15 20:53N 16°48' W 062°13'0 0.0
2018-Feb-15 20:23N 16°48' W 062°13'0 0.0
2018-Feb-15 19:59N 16°48' W 062°13'0 0.1
2018-Feb-15 19:26N 16°48' W 062°13'0 0.1
2018-Feb-15 18:59N 16°48' W 062°13'0 0.0
2018-Feb-15 18:29N 16°48' W 062°13'0 0.1
2018-Feb-15 17:59N 16°48' W 062°13'0 0.0
2018-Feb-15 17:26N 16°48' W 062°13'0 0.0
2018-Feb-15 16:56N 16°48' W 062°13'0 0.1
2018-Feb-15 16:29N 16°48' W 062°13'0 0.0
2018-Feb-15 15:59N 16°48' W 062°13'0 0.1
2018-Feb-15 15:29N 16°48' W 062°13'0 0.0
2018-Feb-15 14:56N 16°48' W 062°13'0 0.1
2018-Feb-15 14:17N 16°48' W 062°13'0 0.1
2018-Feb-15 13:59N 16°48' W 062°13'0 0.1
2018-Feb-15 13:29N 16°48' W 062°13'0 0.0
2018-Feb-15 12:59N 16°48' W 062°13'0 0.0
2018-Feb-15 12:26N 16°48' W 062°13'0 0.0
2018-Feb-15 12:00N 16°48' W 062°13'0 0.1
2018-Feb-15 11:30N 16°48' W 062°13'0 0.1
2018-Feb-15 11:00N 16°48' W 062°13'0 0.1
2018-Feb-15 10:30N 16°48' W 062°13'3 5.0
2018-Feb-15 10:00N 16°48' W 062°15'3 5.9
2018-Feb-15 09:30N 16°45' W 062°17'4 6.4
2018-Feb-15 08:57N 16°41' W 062°17'3 6.9
2018-Feb-15 08:30N 16°39' W 062°15'4 7.4
2018-Feb-15 08:00N 16°36' W 062°13'4 7.4
2018-Feb-15 07:30N 16°33' W 062°11'4 7.3
2018-Feb-15 07:00N 16°30' W 062°09'4 7.1
2018-Feb-15 06:30N 16°27' W 062°06'3 6.9
2018-Feb-15 06:00N 16°24' W 062°04'3 6.5
2018-Feb-15 05:30N 16°21' W 062°02'3 6.4
2018-Feb-15 04:59N 16°19' W 062°00'3 6.5
2018-Feb-15 04:30N 16°16' W 061°58'4 6.7
2018-Feb-15 03:50N 16°12' W 061°56'12 9.6
2018-Feb-15 02:34N 16°03' W 061°48'211.0
2018-Feb-15 02:25N 16°01' W 061°47'88 3.3
2018-Feb-14 00:12N 14°39' W 061°16'511.3
2018-Feb-13 23:47N 14°35' W 061°14'411.2
2018-Feb-13 23:23N 14°31' W 061°11'411.3
2018-Feb-13 23:00N 14°27' W 061°10'612.0
2018-Feb-13 22:30N 14°21' W 061°07'1 0.0
2018-Feb-13 02:11N 14°21' W 061°07'1 6.5
2018-Feb-13 01:59N 14°22' W 061°07'5 7.4
2018-Feb-13 01:19N 14°27' W 061°09'1 2.9
2018-Feb-13 00:50N 14°28' W 061°09'9 0.9
2018-Feb-12 14:23N 14°36' W 061°04'  

Dump ship's entire track history